createdAt,value
2018-05-09T00:02:50.053Z,12.25
2018-05-09T00:08:45.034Z,12.35
2018-05-09T00:14:40.079Z,11.37
2018-05-09T00:20:35.038Z,11.2
2018-05-09T00:26:30.121Z,10.22
2018-05-09T00:32:25.084Z,8.63
2018-05-09T00:38:20.084Z,9.41
2018-05-09T00:44:15.083Z,7.54
2018-05-09T00:50:10.180Z,8.54
2018-05-09T00:56:05.085Z,9.95
2018-05-09T01:02:00.105Z,10.17
2018-05-09T01:07:55.156Z,9.67
2018-05-09T01:13:50.123Z,8.06
2018-05-09T01:19:45.119Z,7.17
2018-05-09T01:25:40.147Z,7.81
2018-05-09T01:31:35.101Z,6.5
2018-05-09T01:37:30.117Z,6.69
2018-05-09T01:43:25.105Z,6.99
2018-05-09T01:49:20.140Z,6.54
2018-05-09T01:55:15.134Z,6.81
2018-05-09T02:01:10.102Z,7.74
2018-05-09T02:07:05.134Z,7.84
2018-05-09T02:13:00.158Z,8.28
2018-05-09T02:18:55.128Z,7.21
2018-05-09T02:24:50.136Z,8.97
2018-05-09T02:30:45.142Z,9.37
2018-05-09T02:36:40.125Z,9.36
2018-05-09T02:42:35.219Z,10.04
2018-05-09T02:48:30.167Z,9.77
2018-05-09T02:54:25.193Z,9.28
2018-05-09T03:00:20.183Z,8.78
2018-05-09T03:06:15.154Z,6.89
2018-05-09T03:12:10.277Z,6.22
2018-05-09T03:18:05.154Z,5.78
2018-05-09T03:24:00.147Z,6.47
2018-05-09T03:29:55.161Z,7.39
2018-05-09T03:35:50.153Z,6.27
2018-05-09T03:41:45.190Z,6.63
2018-05-09T03:47:40.202Z,7.5
2018-05-09T03:53:35.205Z,7.5
2018-05-09T03:59:30.249Z,8.66
2018-05-09T04:05:25.262Z,8.62
2018-05-09T04:11:20.178Z,9.38
2018-05-09T04:17:15.208Z,9.71
2018-05-09T04:23:10.198Z,10.14
2018-05-09T04:29:05.199Z,9.85
2018-05-09T04:35:00.189Z,10.53
2018-05-09T04:40:55.290Z,9.58
2018-05-09T04:46:50.219Z,9.93
2018-05-09T04:52:45.202Z,9.53
2018-05-09T04:58:40.284Z,9.28
2018-05-09T05:04:35.239Z,9.72
2018-05-09T05:10:30.213Z,9.33
2018-05-09T05:16:25.242Z,9.09
2018-05-09T05:22:20.242Z,9.32
2018-05-09T05:28:15.206Z,13.92
2018-05-09T05:34:10.294Z,12.93
2018-05-09T05:40:05.239Z,14.13
2018-05-09T05:46:00.251Z,12.55
2018-05-09T05:51:55.310Z,13.17
2018-05-09T05:57:50.241Z,12.19
2018-05-09T06:03:45.234Z,14.07
2018-05-09T06:09:40.249Z,13.59
2018-05-09T06:15:35.256Z,14.3
2018-05-09T06:21:30.293Z,15.45
2018-05-09T06:27:25.282Z,16.29
2018-05-09T06:33:20.273Z,16.38
2018-05-09T06:39:15.244Z,10.54
2018-05-09T06:45:10.295Z,11.02
2018-05-09T06:51:05.313Z,12.7
2018-05-09T06:57:00.292Z,12.8
2018-05-09T07:02:55.285Z,17.19
2018-05-09T07:08:50.286Z,17.69
2018-05-09T07:14:45.295Z,17.92
2018-05-09T07:20:40.281Z,17.96
2018-05-09T07:26:35.273Z,19.64
2018-05-09T07:32:30.306Z,21.9
2018-05-09T07:38:25.345Z,24.25
2018-05-09T07:44:20.323Z,24.37
2018-05-09T07:50:15.327Z,22.83
2018-05-09T07:56:10.353Z,23.92
2018-05-09T08:02:05.364Z,23.48
2018-05-09T08:08:00.341Z,22.99
2018-05-09T08:13:55.330Z,24.23
2018-05-09T08:19:50.325Z,23.72
2018-05-09T08:25:45.380Z,24.67
2018-05-09T08:31:40.340Z,25.44
2018-05-09T08:37:35.387Z,25.03
2018-05-09T08:43:30.495Z,26.08
2018-05-09T08:49:25.523Z,25.97
2018-05-09T08:55:20.399Z,28.75
2018-05-09T09:01:15.327Z,30.59
2018-05-09T09:07:10.339Z,29.14
2018-05-09T09:13:05.385Z,29.24
2018-05-09T09:19:00.352Z,29.48
2018-05-09T09:24:55.347Z,25.92
2018-05-09T09:30:50.348Z,26.31
2018-05-09T09:36:45.352Z,25.76
2018-05-09T09:42:40.375Z,26.58
2018-05-09T09:48:35.395Z,27.28
2018-05-09T09:54:30.398Z,26.79
2018-05-09T10:00:25.401Z,26.77
2018-05-09T10:06:20.388Z,25.48
2018-05-09T10:12:15.469Z,24.94
2018-05-09T10:18:10.433Z,25.33
2018-05-09T10:24:05.436Z,24.69
2018-05-09T10:30:00.421Z,16.93
2018-05-09T10:35:55.419Z,23.95
2018-05-09T10:41:50.395Z,21.88
2018-05-09T10:47:45.409Z,16.8
2018-05-09T10:53:40.463Z,17.3
2018-05-09T10:59:35.393Z,18.24
2018-05-09T11:05:30.400Z,22.58
2018-05-09T11:11:25.436Z,19.5
2018-05-09T11:17:20.444Z,16.46
2018-05-09T11:23:15.463Z,15.03
2018-05-09T11:29:10.425Z,15.09
2018-05-09T11:35:05.428Z,16.18
2018-05-09T11:41:00.456Z,14.21
2018-05-09T11:46:55.465Z,16.11
2018-05-09T11:52:50.453Z,13.84
2018-05-09T11:58:45.418Z,14.7
2018-05-09T12:04:40.520Z,18.79
2018-05-09T12:10:35.572Z,19.33
2018-05-09T12:16:30.489Z,18.01
2018-05-09T12:22:25.450Z,13.63
2018-05-09T12:28:20.450Z,15.09
2018-05-09T12:34:15.463Z,15.51
2018-05-09T12:40:10.476Z,15.94
2018-05-09T12:46:05.531Z,14.13
2018-05-09T12:52:00.496Z,15.14
2018-05-09T12:57:55.475Z,15.18
2018-05-09T13:03:50.534Z,15.94
2018-05-09T13:09:45.498Z,15.91
2018-05-09T13:15:40.523Z,16.87
2018-05-09T13:21:35.487Z,17.3
2018-05-09T13:27:30.492Z,17.18
2018-05-09T13:33:25.504Z,14.53
2018-05-09T13:39:20.562Z,12.59
2018-05-09T13:45:15.529Z,11.8
2018-05-09T13:51:10.494Z,12.88
2018-05-09T13:57:05.482Z,12.1
2018-05-09T14:03:00.523Z,11.78
2018-05-09T14:08:55.557Z,10.82
2018-05-09T14:14:50.505Z,10.23
2018-05-09T14:20:45.541Z,10.29
2018-05-09T14:26:40.535Z,8.92
2018-05-09T14:32:35.550Z,6.6
2018-05-09T14:38:30.541Z,6.24
2018-05-09T14:44:25.546Z,7.27
2018-05-09T14:50:20.542Z,5.21
2018-05-09T14:56:15.545Z,6.6
2018-05-09T15:02:10.579Z,6.6
2018-05-09T15:08:05.603Z,5.6
2018-05-09T15:14:00.664Z,3.9
2018-05-09T15:19:55.558Z,3.82
2018-05-09T15:25:50.599Z,4.3
2018-05-09T15:31:45.527Z,4.33
2018-05-09T15:37:40.559Z,5.66
2018-05-09T15:43:35.596Z,4.33
2018-05-09T15:49:30.569Z,4.18
2018-05-09T15:55:25.580Z,5.07
2018-05-09T16:01:20.591Z,4.82
2018-05-09T16:07:15.612Z,4.47
2018-05-09T16:13:10.656Z,4.67
2018-05-09T16:19:05.606Z,6.81
2018-05-09T16:25:00.585Z,22.19
2018-05-09T16:30:55.603Z,8.13
2018-05-09T16:36:50.591Z,8.23
2018-05-09T16:42:45.588Z,9.41
2018-05-09T16:48:40.616Z,8.04
2018-05-09T16:54:35.581Z,14.22
2018-05-09T17:00:30.622Z,6.21
2018-05-09T17:06:25.629Z,6.29
2018-05-09T17:12:20.650Z,4.89
2018-05-09T17:18:15.671Z,6.64
2018-05-09T17:24:10.677Z,4.72
2018-05-09T17:30:05.636Z,5.14
2018-05-09T17:36:00.649Z,4.92
2018-05-09T17:41:55.669Z,6.92
2018-05-09T17:47:50.634Z,7.43
2018-05-09T17:53:45.626Z,5.62
2018-05-09T17:59:40.658Z,4.87
2018-05-09T18:05:35.626Z,8.5
2018-05-09T18:11:30.690Z,5.71
2018-05-09T18:17:25.657Z,5.56
2018-05-09T18:23:20.656Z,5.28
2018-05-09T18:29:15.637Z,5.5
2018-05-09T18:35:10.650Z,5.58
2018-05-09T18:41:05.687Z,4.27
2018-05-09T18:47:00.646Z,4.62
2018-05-09T18:52:55.673Z,4.46
2018-05-09T18:58:50.693Z,4.43
2018-05-09T19:04:45.694Z,5.12
2018-05-09T19:10:40.708Z,5.62
2018-05-09T19:16:35.693Z,6.8
2018-05-09T19:22:30.696Z,7.47
2018-05-09T19:28:25.707Z,7.85
2018-05-09T19:34:20.767Z,8.01
2018-05-09T19:40:15.721Z,7.82
2018-05-09T19:46:10.683Z,7.1
2018-05-09T19:52:05.710Z,6.24
2018-05-09T19:58:00.695Z,6.72
2018-05-09T20:03:55.714Z,7.43
2018-05-09T20:09:50.727Z,7.34
2018-05-09T20:15:45.716Z,6.47
2018-05-09T20:21:40.735Z,6.87
2018-05-09T20:27:35.704Z,7.66
2018-05-09T20:33:30.748Z,7.67
2018-05-09T20:39:25.749Z,5.38
2018-05-09T20:45:20.740Z,5.2
2018-05-09T20:51:15.726Z,5.38
2018-05-09T20:57:10.761Z,5.64
2018-05-09T21:03:05.770Z,6.68
2018-05-09T21:09:00.794Z,6.44
2018-05-09T21:14:55.748Z,6.21
2018-05-09T21:20:50.765Z,6.23
2018-05-09T21:26:45.774Z,6.5
2018-05-09T21:32:40.767Z,6.82
2018-05-09T21:38:35.754Z,6.77
2018-05-09T21:44:30.769Z,6.38
2018-05-09T21:50:25.747Z,7.01
2018-05-09T21:56:20.774Z,6.32
2018-05-09T22:02:15.763Z,6.17
2018-05-09T22:08:10.765Z,7.43
2018-05-09T22:14:05.761Z,6.9
2018-05-09T22:20:00.809Z,6.34
2018-05-09T22:25:55.772Z,5.68
2018-05-09T22:31:50.842Z,5.11
2018-05-09T22:37:45.832Z,5.4
2018-05-09T22:43:40.826Z,5.52
2018-05-09T22:49:35.790Z,5.97
2018-05-09T22:55:30.823Z,6.12
2018-05-09T23:01:25.960Z,6.14
2018-05-09T23:07:20.862Z,6.57
2018-05-09T23:13:15.860Z,6.76
2018-05-09T23:19:10.806Z,6.28
2018-05-09T23:25:05.813Z,5.85
2018-05-09T23:31:00.842Z,6.2
2018-05-09T23:36:55.838Z,5.68
2018-05-09T23:42:50.891Z,5.43
2018-05-09T23:48:45.851Z,5.55
2018-05-09T23:54:40.910Z,6.6
